createdAt,value
2023-01-17T00:01:18.549Z,3.92
2023-01-17T00:03:20.603Z,3.92
2023-01-17T00:05:42.030Z,4.10
2023-01-17T00:08:02.775Z,4.32
2023-01-17T00:10:19.403Z,4.45
2023-01-17T00:12:30.950Z,3.35
2023-01-17T00:14:35.023Z,3.45
2023-01-17T00:16:40.068Z,2.95
2023-01-17T00:19:03.856Z,3.13
2023-01-17T00:21:26.393Z,2.60
2023-01-17T00:23:47.243Z,3.63
2023-01-17T00:26:07.225Z,3.28
2023-01-17T00:28:10.656Z,3.38
2023-01-17T00:30:12.831Z,3.58
2023-01-17T00:32:14.697Z,3.47
2023-01-17T00:34:23.584Z,3.40
2023-01-17T00:36:25.571Z,3.60
2023-01-17T00:38:38.236Z,3.20
2023-01-17T00:40:49.252Z,3.30
2023-01-17T00:43:22.832Z,3.72
2023-01-17T00:45:44.279Z,3.70
2023-01-17T00:48:05.071Z,3.28
2023-01-17T00:50:25.774Z,3.50
2023-01-17T00:52:52.250Z,3.58
2023-01-17T00:55:15.103Z,3.90
2023-01-17T00:57:35.657Z,3.40
2023-01-17T00:59:57.572Z,3.67
2023-01-17T01:04:45.920Z,3.60
2023-01-17T01:07:09.160Z,4.22
2023-01-17T01:09:35.469Z,3.90
2023-01-17T01:12:08.737Z,3.40
2023-01-17T01:14:30.327Z,4.15
2023-01-17T01:17:01.852Z,3.40
2023-01-17T01:19:26.213Z,4.10
2023-01-17T01:21:49.123Z,3.95
2023-01-17T01:24:09.691Z,4.20
2023-01-17T01:26:31.481Z,4.28
2023-01-17T01:28:53.194Z,4.60
2023-01-17T01:31:18.290Z,4.43
2023-01-17T01:33:27.967Z,4.38
2023-01-17T01:35:31.080Z,4.65
2023-01-17T01:37:37.465Z,3.92
2023-01-17T01:39:41.476Z,4.60
2023-01-17T01:41:44.505Z,4.88
2023-01-17T01:43:58.597Z,4.97
2023-01-17T01:46:07.918Z,4.50
2023-01-17T01:48:32.451Z,5.03
2023-01-17T01:50:37.806Z,5.05
2023-01-17T01:52:49.170Z,5.20
2023-01-17T01:55:00.403Z,5.03
2023-01-17T01:57:07.393Z,5.32
2023-01-17T01:59:14.029Z,5.43
2023-01-17T02:01:24.811Z,5.10
2023-01-17T02:03:32.895Z,5.03
2023-01-17T02:05:35.801Z,4.50
2023-01-17T02:08:11.420Z,4.80
2023-01-17T02:10:20.699Z,5.30
2023-01-17T02:12:23.744Z,5.32
2023-01-17T02:14:25.685Z,4.78
2023-01-17T02:16:45.304Z,5.30
2023-01-17T02:19:09.125Z,4.97
2023-01-17T02:21:37.688Z,4.90
2023-01-17T02:24:10.261Z,5.82
2023-01-17T02:27:02.625Z,5.25
2023-01-17T02:31:37.205Z,5.97
2023-01-17T02:33:39.661Z,5.43
2023-01-17T02:36:04.771Z,5.28
2023-01-17T02:38:32.235Z,5.53
2023-01-17T02:40:47.876Z,4.95
2023-01-17T02:43:02.946Z,5.30
2023-01-17T02:45:10.451Z,5.45
2023-01-17T02:47:42.688Z,5.72
2023-01-17T02:49:45.668Z,5.03
2023-01-17T02:52:21.226Z,5.80
2023-01-17T02:54:47.513Z,5.70
2023-01-17T02:57:21.074Z,5.70
2023-01-17T02:59:40.274Z,5.07
2023-01-17T03:02:37.119Z,5.80
2023-01-17T03:04:51.768Z,5.97
2023-01-17T03:07:03.391Z,5.70
2023-01-17T03:09:09.163Z,5.53
2023-01-17T03:11:14.217Z,5.72
2023-01-17T03:13:16.231Z,7.07
2023-01-17T03:15:24.878Z,6.75
2023-01-17T03:17:32.999Z,7.03
2023-01-17T03:19:36.143Z,5.60
2023-01-17T03:21:38.145Z,5.82
2023-01-17T03:23:40.109Z,6.57
2023-01-17T03:25:42.337Z,7.18
2023-01-17T03:27:48.544Z,7.07
2023-01-17T03:29:50.533Z,6.65
2023-01-17T03:31:54.104Z,6.90
2023-01-17T03:33:58.440Z,6.97
2023-01-17T03:36:01.550Z,6.55
2023-01-17T03:38:05.627Z,6.30
2023-01-17T03:40:08.771Z,6.38
2023-01-17T03:42:10.954Z,6.05
2023-01-17T03:44:14.944Z,6.10
2023-01-17T03:46:23.848Z,6.25
2023-01-17T03:48:32.853Z,6.13
2023-01-17T03:50:36.813Z,6.50
2023-01-17T03:52:42.195Z,6.97
2023-01-17T03:54:46.503Z,6.22
2023-01-17T03:56:48.850Z,7.00
2023-01-17T03:58:51.814Z,6.28
2023-01-17T04:00:55.239Z,6.82
2023-01-17T04:02:57.354Z,6.85
2023-01-17T04:04:59.571Z,6.32
2023-01-17T04:07:02.627Z,6.10
2023-01-17T04:09:14.635Z,6.97
2023-01-17T04:11:17.204Z,6.80
2023-01-17T04:13:22.463Z,6.63
2023-01-17T04:15:33.648Z,6.85
2023-01-17T04:17:39.877Z,6.60
2023-01-17T04:19:42.227Z,6.90
2023-01-17T04:21:44.352Z,7.30
2023-01-17T04:23:48.228Z,7.18
2023-01-17T04:25:50.324Z,7.45
2023-01-17T04:27:55.560Z,7.07
2023-01-17T04:29:57.572Z,7.38
2023-01-17T04:32:02.020Z,8.38
2023-01-17T04:34:08.229Z,7.85
2023-01-17T04:36:12.653Z,7.30
2023-01-17T04:38:15.570Z,8.38
2023-01-17T04:40:18.440Z,7.45
2023-01-17T04:42:20.618Z,7.25
2023-01-17T04:44:22.578Z,7.38
2023-01-17T04:46:24.775Z,6.90
2023-01-17T04:48:27.480Z,6.97
2023-01-17T04:50:29.560Z,6.63
2023-01-17T04:52:31.760Z,7.05
2023-01-17T04:54:37.992Z,7.18
2023-01-17T04:56:39.990Z,6.30
2023-01-17T04:58:42.984Z,7.15
2023-01-17T05:00:51.008Z,7.55
2023-01-17T05:02:55.125Z,7.63
2023-01-17T05:04:58.279Z,6.97
2023-01-17T05:07:01.316Z,7.57
2023-01-17T05:09:03.343Z,7.95
2023-01-17T05:11:05.608Z,7.50
2023-01-17T05:13:11.095Z,7.55
2023-01-17T05:15:18.846Z,6.68
2023-01-17T05:17:24.077Z,6.70
2023-01-17T05:19:27.384Z,7.22
2023-01-17T05:21:31.779Z,6.88
2023-01-17T05:23:33.753Z,8.27
2023-01-17T05:25:36.684Z,7.05
2023-01-17T05:27:44.270Z,7.00
2023-01-17T05:29:47.533Z,7.68
2023-01-17T05:31:49.571Z,7.55
2023-01-17T05:33:51.770Z,7.63
2023-01-17T05:35:55.824Z,7.85
2023-01-17T05:37:57.797Z,7.60
2023-01-17T05:40:04.028Z,6.82
2023-01-17T05:42:06.146Z,7.40
2023-01-17T05:44:09.449Z,7.72
2023-01-17T05:46:11.912Z,8.18
2023-01-17T05:48:15.093Z,7.90
2023-01-17T05:50:21.297Z,8.48
2023-01-17T05:52:24.898Z,11.13
2023-01-17T05:54:26.973Z,10.80
2023-01-17T05:56:28.883Z,8.13
2023-01-17T05:58:31.911Z,7.68
2023-01-17T06:00:35.543Z,7.75
2023-01-17T06:02:45.574Z,8.80
2023-01-17T06:04:48.690Z,7.85
2023-01-17T06:06:50.786Z,8.98
2023-01-17T06:08:52.724Z,8.02
2023-01-17T06:11:00.391Z,7.68
2023-01-17T06:13:10.911Z,7.43
2023-01-17T06:15:14.536Z,6.47
2023-01-17T06:17:16.721Z,7.13
2023-01-17T06:19:19.795Z,7.65
2023-01-17T06:21:29.860Z,7.68
2023-01-17T06:23:32.206Z,8.55
2023-01-17T06:25:45.850Z,9.05
2023-01-17T06:27:48.988Z,9.20
2023-01-17T06:29:52.282Z,8.60
2023-01-17T06:31:55.325Z,8.55
2023-01-17T06:34:02.639Z,7.00
2023-01-17T06:36:05.211Z,6.90
2023-01-17T06:38:08.006Z,6.25
2023-01-17T06:40:10.895Z,6.88
2023-01-17T06:42:12.936Z,7.72
2023-01-17T06:44:14.875Z,6.65
2023-01-17T06:46:17.846Z,7.05
2023-01-17T06:48:19.854Z,7.45
2023-01-17T06:50:22.204Z,8.65
2023-01-17T06:52:24.165Z,8.02
2023-01-17T06:54:27.273Z,7.07
2023-01-17T06:56:32.285Z,7.35
2023-01-17T06:58:34.653Z,7.13
2023-01-17T07:00:39.444Z,7.60
2023-01-17T07:02:42.534Z,6.50
2023-01-17T07:04:44.801Z,7.40
2023-01-17T07:06:51.685Z,6.93
2023-01-17T07:08:53.812Z,7.63
2023-01-17T07:11:03.484Z,6.57
2023-01-17T07:13:12.776Z,6.93
2023-01-17T07:15:16.976Z,7.40
2023-01-17T07:17:19.354Z,8.10
2023-01-17T07:19:21.579Z,7.45
2023-01-17T07:21:24.542Z,9.07
2023-01-17T07:23:31.773Z,10.15
2023-01-17T07:25:33.931Z,8.40
2023-01-17T07:27:35.834Z,7.82
2023-01-17T07:29:38.992Z,7.43
2023-01-17T07:31:42.366Z,6.93
2023-01-17T07:33:44.298Z,7.03
2023-01-17T07:35:46.829Z,6.97
2023-01-17T07:37:51.906Z,6.45
2023-01-17T07:39:54.765Z,6.65
2023-01-17T07:42:01.835Z,7.53
2023-01-17T07:44:03.796Z,9.57
2023-01-17T07:46:08.277Z,9.80
2023-01-17T07:48:11.868Z,9.70
2023-01-17T07:50:20.785Z,6.75
2023-01-17T07:52:24.934Z,6.80
2023-01-17T07:54:28.952Z,6.68
2023-01-17T07:56:30.859Z,7.50
2023-01-17T07:58:36.929Z,6.32
2023-01-17T08:00:38.930Z,6.60
2023-01-17T08:02:41.896Z,6.47
2023-01-17T08:04:46.359Z,6.40
2023-01-17T08:06:51.900Z,6.30
2023-01-17T08:08:56.705Z,5.88
2023-01-17T08:10:58.848Z,5.88
2023-01-17T08:13:00.774Z,5.85
2023-01-17T08:15:05.690Z,5.10
2023-01-17T08:17:14.791Z,6.05
2023-01-17T08:19:17.612Z,6.38
2023-01-17T08:21:19.738Z,5.85
2023-01-17T08:23:23.912Z,6.07
2023-01-17T08:25:26.844Z,5.72
2023-01-17T08:27:29.860Z,5.32
2023-01-17T08:29:31.758Z,6.97
2023-01-17T08:31:36.071Z,6.13
2023-01-17T08:33:45.877Z,5.60
2023-01-17T08:35:55.193Z,5.15
2023-01-17T08:37:58.297Z,5.63
2023-01-17T08:40:07.997Z,5.45
2023-01-17T08:42:09.923Z,4.97
2023-01-17T08:44:12.383Z,5.20
2023-01-17T08:46:14.569Z,4.72
2023-01-17T08:48:17.327Z,5.43
2023-01-17T08:50:22.408Z,5.20
2023-01-17T08:52:27.676Z,4.85
2023-01-17T08:54:30.006Z,4.47
2023-01-17T08:56:32.967Z,4.78
2023-01-17T08:58:36.026Z,4.95
2023-01-17T09:00:38.149Z,4.55
2023-01-17T09:02:40.162Z,4.70
2023-01-17T09:04:48.970Z,4.82
2023-01-17T09:06:50.928Z,5.53
2023-01-17T09:08:55.045Z,4.80
2023-01-17T09:10:58.284Z,5.15
2023-01-17T09:13:01.328Z,4.45
2023-01-17T09:15:05.302Z,5.13
2023-01-17T09:17:08.458Z,5.13
2023-01-17T09:19:10.612Z,4.32
2023-01-17T09:21:15.438Z,4.50
2023-01-17T09:23:19.572Z,4.85
2023-01-17T09:25:21.566Z,5.40
2023-01-17T09:27:29.591Z,4.38
2023-01-17T09:29:31.591Z,5.03
2023-01-17T09:31:35.950Z,5.22
2023-01-17T09:33:43.819Z,4.82
2023-01-17T09:35:47.322Z,4.97
2023-01-17T09:37:57.307Z,4.97
2023-01-17T09:39:59.367Z,5.20
2023-01-17T09:42:28.179Z,5.03
2023-01-17T09:44:44.189Z,5.25
2023-01-17T09:46:49.198Z,5.22
2023-01-17T09:49:18.863Z,5.43
2023-01-17T09:51:24.666Z,5.55
2023-01-17T09:53:29.209Z,4.95
2023-01-17T09:55:44.187Z,5.63
2023-01-17T09:58:09.024Z,5.65
2023-01-17T10:00:15.603Z,6.00
2023-01-17T10:02:37.757Z,5.28
2023-01-17T10:04:55.779Z,6.20
2023-01-17T10:07:13.569Z,4.93
2023-01-17T10:09:29.631Z,5.97
2023-01-17T10:11:44.628Z,5.60
2023-01-17T10:13:52.571Z,5.85
2023-01-17T10:16:23.073Z,6.00
2023-01-17T10:19:04.086Z,6.53
2023-01-17T10:21:28.917Z,5.30
2023-01-17T10:23:56.970Z,5.40
2023-01-17T10:26:03.467Z,5.65
2023-01-17T10:28:12.637Z,5.30
2023-01-17T10:30:45.291Z,5.60
2023-01-17T10:32:49.411Z,6.00
2023-01-17T10:34:53.597Z,5.80
2023-01-17T10:37:23.060Z,5.75
2023-01-17T10:39:29.177Z,6.55
2023-01-17T10:41:45.121Z,5.60
2023-01-17T10:44:06.628Z,4.78
2023-01-17T10:46:16.170Z,5.35
2023-01-17T10:48:35.609Z,6.10
2023-01-17T10:50:59.459Z,6.80
2023-01-17T10:53:17.585Z,7.10
2023-01-17T10:55:33.087Z,6.82
2023-01-17T10:57:43.998Z,6.45
2023-01-17T10:59:49.068Z,7.00
2023-01-17T11:01:51.485Z,6.75
2023-01-17T11:03:59.648Z,7.30
2023-01-17T11:06:27.296Z,6.20
2023-01-17T11:08:57.565Z,7.72
2023-01-17T11:11:04.362Z,7.07
2023-01-17T11:13:31.296Z,6.28
2023-01-17T11:15:40.011Z,6.30
2023-01-17T11:18:00.447Z,6.80
2023-01-17T11:20:39.684Z,5.97
2023-01-17T11:22:49.663Z,6.28
2023-01-17T11:24:55.235Z,5.90
2023-01-17T11:26:58.803Z,7.13
2023-01-17T11:29:32.797Z,6.70
2023-01-17T11:31:35.762Z,7.28
2023-01-17T11:34:05.491Z,7.78
2023-01-17T11:36:27.726Z,8.48
2023-01-17T11:38:30.864Z,8.57
2023-01-17T11:40:36.897Z,8.60
2023-01-17T11:42:39.213Z,8.15
2023-01-17T11:44:43.187Z,8.07
2023-01-17T11:46:45.195Z,9.35
2023-01-17T11:48:51.536Z,8.18
2023-01-17T11:51:00.416Z,10.57
2023-01-17T11:53:16.840Z,9.68
2023-01-17T11:55:23.215Z,8.73
2023-01-17T11:57:31.679Z,8.48
2023-01-17T11:59:43.976Z,9.60
2023-01-17T12:02:21.499Z,6.43
2023-01-17T12:05:15.563Z,7.00
2023-01-17T12:07:38.641Z,6.80
2023-01-17T12:09:54.805Z,6.07
2023-01-17T12:12:31.318Z,6.60
2023-01-17T12:14:46.751Z,6.97
2023-01-17T12:17:23.276Z,7.22
2023-01-17T12:19:46.906Z,7.18
2023-01-17T12:22:04.083Z,6.85
2023-01-17T12:24:14.693Z,6.65
2023-01-17T12:26:59.056Z,6.95
2023-01-17T12:29:28.838Z,6.70
2023-01-17T12:31:39.708Z,7.50
2023-01-17T12:34:02.149Z,7.10
2023-01-17T12:36:17.770Z,8.52
2023-01-17T12:38:33.670Z,7.30
2023-01-17T12:40:46.905Z,7.10
2023-01-17T12:42:59.368Z,8.27
2023-01-17T12:45:12.046Z,7.45
2023-01-17T12:47:15.592Z,8.25
2023-01-17T12:49:26.629Z,8.23
2023-01-17T12:51:34.436Z,9.02
2023-01-17T12:53:52.400Z,8.07
2023-01-17T12:56:09.286Z,7.53
2023-01-17T12:58:37.065Z,8.52
2023-01-17T13:00:40.023Z,7.90
2023-01-17T13:02:57.851Z,8.45
2023-01-17T13:05:07.140Z,7.18
2023-01-17T13:07:48.207Z,6.90
2023-01-17T13:10:00.317Z,8.68
2023-01-17T13:12:10.590Z,6.72
2023-01-17T13:14:13.585Z,7.82
2023-01-17T13:16:31.981Z,6.55
2023-01-17T13:18:37.231Z,6.68
2023-01-17T13:20:54.157Z,7.18
2023-01-17T13:23:01.794Z,6.35
2023-01-17T13:25:32.277Z,7.97
2023-01-17T13:27:37.830Z,6.68
2023-01-17T13:29:49.721Z,9.20
2023-01-17T13:32:25.951Z,8.93
2023-01-17T13:34:55.429Z,6.82
2023-01-17T13:37:24.783Z,7.00
2023-01-17T13:39:52.187Z,6.90
2023-01-17T13:42:11.209Z,6.00
2023-01-17T13:44:24.905Z,6.53
2023-01-17T13:46:31.190Z,5.70
2023-01-17T13:48:41.397Z,7.13
2023-01-17T13:50:47.520Z,6.72
2023-01-17T13:52:49.614Z,6.60
2023-01-17T13:54:53.692Z,6.40
2023-01-17T13:57:53.488Z,6.35
2023-01-17T14:00:24.667Z,6.88
2023-01-17T14:02:33.537Z,6.57
2023-01-17T14:05:16.432Z,6.78
2023-01-17T14:07:25.638Z,6.10
2023-01-17T14:09:43.080Z,6.20
2023-01-17T14:12:11.094Z,6.72
2023-01-17T14:14:59.059Z,6.60
2023-01-17T14:17:29.470Z,7.13
2023-01-17T14:19:36.669Z,8.40
2023-01-17T14:21:38.764Z,7.55
2023-01-17T14:24:00.919Z,6.90
2023-01-17T14:26:23.672Z,7.13
2023-01-17T14:28:29.961Z,7.57
2023-01-17T14:30:38.368Z,6.57
2023-01-17T14:32:43.499Z,7.57
2023-01-17T14:34:47.939Z,6.75
2023-01-17T14:36:49.946Z,7.07
2023-01-17T14:38:51.972Z,6.50
2023-01-17T14:40:59.249Z,6.78
2023-01-17T14:43:18.913Z,6.80
2023-01-17T14:45:28.875Z,9.18
2023-01-17T14:47:34.787Z,9.23
2023-01-17T14:49:36.813Z,12.52
2023-01-17T14:51:39.243Z,13.30
2023-01-17T14:53:53.876Z,15.50
2023-01-17T14:56:03.456Z,16.60
2023-01-17T14:58:05.650Z,15.68
2023-01-17T15:00:21.375Z,19.65
2023-01-17T15:02:23.618Z,17.48
2023-01-17T15:04:30.647Z,19.85
2023-01-17T15:06:41.121Z,15.85
2023-01-17T15:08:43.371Z,15.25
2023-01-17T15:11:00.362Z,8.80
2023-01-17T15:13:10.665Z,10.82
2023-01-17T15:15:35.472Z,13.35
2023-01-17T15:17:39.537Z,14.00
2023-01-17T15:20:01.930Z,12.35
2023-01-17T15:22:05.311Z,11.27
2023-01-17T15:24:09.174Z,11.27
2023-01-17T15:26:15.262Z,10.82
2023-01-17T15:28:25.079Z,10.27
2023-01-17T15:30:43.997Z,10.20
2023-01-17T15:32:51.473Z,9.55
2023-01-17T15:34:54.522Z,10.40
2023-01-17T15:36:59.385Z,11.88
2023-01-17T15:39:05.159Z,11.52
2023-01-17T15:41:18.238Z,11.63
2023-01-17T15:43:24.425Z,11.68
2023-01-17T15:45:32.011Z,12.27
2023-01-17T15:47:40.243Z,13.13
2023-01-17T15:49:51.775Z,13.43
2023-01-17T15:53:57.905Z,13.48
2023-01-17T15:56:01.085Z,13.43
2023-01-17T15:58:05.103Z,12.85
2023-01-17T16:00:12.644Z,13.95
2023-01-17T16:02:37.950Z,13.35
2023-01-17T16:04:42.477Z,14.75
2023-01-17T16:06:47.598Z,12.65
2023-01-17T16:08:53.149Z,11.52
2023-01-17T16:11:02.568Z,9.95
2023-01-17T16:13:07.084Z,9.95
2023-01-17T16:15:13.056Z,10.35
2023-01-17T16:17:18.194Z,10.30
2023-01-17T16:19:21.683Z,13.93
2023-01-17T16:21:26.390Z,11.40
2023-01-17T16:23:28.894Z,11.02
2023-01-17T16:25:33.043Z,10.43
2023-01-17T16:27:35.094Z,10.05
2023-01-17T16:29:37.539Z,10.00
2023-01-17T16:31:39.707Z,9.77
2023-01-17T16:33:46.203Z,9.93
2023-01-17T16:35:48.269Z,9.55
2023-01-17T16:37:54.064Z,9.35
2023-01-17T16:39:56.474Z,10.18
2023-01-17T16:42:05.012Z,10.10
2023-01-17T16:44:07.131Z,11.75
2023-01-17T16:46:11.983Z,11.85
2023-01-17T16:48:14.421Z,11.18
2023-01-17T16:50:22.459Z,10.38
2023-01-17T16:52:24.505Z,10.65
2023-01-17T16:54:33.275Z,10.32
2023-01-17T16:56:36.348Z,10.50
2023-01-17T16:58:40.444Z,15.77
2023-01-17T17:00:43.233Z,17.35
2023-01-17T17:02:45.412Z,21.83
2023-01-17T17:04:47.466Z,25.15
2023-01-17T17:06:49.381Z,25.75
2023-01-17T17:08:51.592Z,24.83
2023-01-17T17:10:53.817Z,23.00
2023-01-17T17:12:56.714Z,23.20
2023-01-17T17:14:59.069Z,21.25
2023-01-17T17:17:02.216Z,23.13
2023-01-17T17:19:07.154Z,21.00
2023-01-17T17:21:09.329Z,22.05
2023-01-17T17:23:13.308Z,25.13
2023-01-17T17:25:16.496Z,27.13
2023-01-17T17:27:18.877Z,21.80
2023-01-17T17:29:22.364Z,18.52
2023-01-17T17:31:24.746Z,17.65
2023-01-17T17:33:28.885Z,17.15
2023-01-17T17:35:35.363Z,16.25
2023-01-17T17:37:38.047Z,21.33
2023-01-17T17:39:42.421Z,29.92
2023-01-17T17:41:48.714Z,29.52
2023-01-17T17:43:52.470Z,34.00
2023-01-17T17:45:56.005Z,32.53
2023-01-17T17:47:58.076Z,31.27
2023-01-17T17:50:00.193Z,33.35
2023-01-17T17:52:06.907Z,37.10
2023-01-17T17:54:13.755Z,42.88
2023-01-17T17:56:17.966Z,32.63
2023-01-17T17:58:22.044Z,39.92
2023-01-17T18:00:25.597Z,39.97
2023-01-17T18:02:28.054Z,32.13
2023-01-17T18:04:30.272Z,30.15
2023-01-17T18:06:32.890Z,30.30
2023-01-17T18:08:37.624Z,27.33
2023-01-17T18:10:40.441Z,29.42
2023-01-17T18:12:42.867Z,33.15
2023-01-17T18:14:44.921Z,40.28
2023-01-17T18:16:51.451Z,51.08
2023-01-17T18:18:56.113Z,47.10
2023-01-17T18:21:07.229Z,55.08
2023-01-17T18:23:10.040Z,58.42
2023-01-17T18:25:13.305Z,44.90
2023-01-17T18:27:15.837Z,42.58
2023-01-17T18:29:19.829Z,41.28
2023-01-17T18:31:28.131Z,42.22
2023-01-17T18:33:30.585Z,40.33
2023-01-17T18:35:36.092Z,36.42
2023-01-17T18:37:39.087Z,36.53
2023-01-17T18:39:45.169Z,34.13
2023-01-17T18:41:49.902Z,36.15
2023-01-17T18:43:53.789Z,43.75
2023-01-17T18:45:56.423Z,42.33
2023-01-17T18:47:59.540Z,42.03
2023-01-17T18:50:03.554Z,45.08
2023-01-17T18:52:08.320Z,43.30
2023-01-17T18:54:13.141Z,40.70
2023-01-17T18:56:21.319Z,37.33
2023-01-17T18:58:25.645Z,39.17
2023-01-17T19:00:28.770Z,36.40
2023-01-17T19:02:32.702Z,33.65
2023-01-17T19:04:36.614Z,33.45
2023-01-17T19:06:43.839Z,32.50
2023-01-17T19:08:49.776Z,32.25
2023-01-17T19:10:52.290Z,34.70
2023-01-17T19:12:56.064Z,31.25
2023-01-17T19:15:04.065Z,31.92
2023-01-17T19:17:10.936Z,32.55
2023-01-17T19:19:16.415Z,24.85
2023-01-17T19:21:21.621Z,23.77
2023-01-17T19:23:24.107Z,25.25
2023-01-17T19:25:26.478Z,26.05
2023-01-17T19:27:29.025Z,24.30
2023-01-17T19:29:31.501Z,22.15
2023-01-17T19:31:40.102Z,21.63
2023-01-17T19:33:44.456Z,22.60
2023-01-17T19:35:47.670Z,24.58
2023-01-17T19:37:53.954Z,23.95
2023-01-17T19:39:57.333Z,24.83
2023-01-17T19:42:02.700Z,25.23
2023-01-17T19:44:09.000Z,27.30
2023-01-17T19:46:13.683Z,25.77
2023-01-17T19:48:17.541Z,27.00
2023-01-17T19:50:20.443Z,29.73
2023-01-17T19:52:24.772Z,28.52
2023-01-17T19:54:28.141Z,25.58
2023-01-17T19:56:31.084Z,24.58
2023-01-17T19:58:39.846Z,27.75
2023-01-17T20:00:50.943Z,26.15
2023-01-17T20:02:53.922Z,28.08
2023-01-17T20:04:57.712Z,26.65
2023-01-17T20:07:00.567Z,26.77
2023-01-17T20:09:04.483Z,27.15
2023-01-17T20:11:19.196Z,25.70
2023-01-17T20:13:23.547Z,25.70
2023-01-17T20:15:27.036Z,24.42
2023-01-17T20:17:30.249Z,26.05
2023-01-17T20:19:35.378Z,25.25
2023-01-17T20:21:38.259Z,25.50
2023-01-17T20:23:44.533Z,27.35
2023-01-17T20:26:05.283Z,26.88
2023-01-17T20:28:09.205Z,26.52
2023-01-17T20:30:20.049Z,28.45
2023-01-17T20:32:22.923Z,29.85
2023-01-17T20:34:26.070Z,31.58
2023-01-17T20:36:30.262Z,30.40
2023-01-17T20:38:54.793Z,33.88
2023-01-17T20:40:57.734Z,41.95
2023-01-17T20:43:00.337Z,48.42
2023-01-17T20:45:04.971Z,36.05
2023-01-17T20:47:07.522Z,30.60
2023-01-17T20:49:19.163Z,26.70
2023-01-17T20:53:25.337Z,30.30
2023-01-17T20:55:30.387Z,27.38
2023-01-17T20:57:33.772Z,27.40
2023-01-17T20:59:36.156Z,29.85
2023-01-17T21:01:39.420Z,31.75
2023-01-17T21:03:41.802Z,32.03
2023-01-17T21:05:43.900Z,31.40
2023-01-17T21:07:46.442Z,34.85
2023-01-17T21:09:48.864Z,36.63
2023-01-17T21:11:52.056Z,36.13
2023-01-17T21:13:54.788Z,36.40
2023-01-17T21:15:58.468Z,35.85
2023-01-17T21:18:00.548Z,37.92
2023-01-17T21:20:06.964Z,36.38
2023-01-17T21:25:31.809Z,32.03
2023-01-17T21:30:58.075Z,26.52
2023-01-17T21:36:24.114Z,26.42
2023-01-17T21:39:56.023Z,29.45
2023-01-17T21:45:20.593Z,31.13
2023-01-17T21:47:34.717Z,32.50
2023-01-17T21:50:05.192Z,36.78
2023-01-17T21:52:31.839Z,34.22
2023-01-17T22:06:07.625Z,28.05
2023-01-17T22:08:19.484Z,29.48
2023-01-17T22:14:06.308Z,26.42
2023-01-17T22:22:52.451Z,29.55
2023-01-17T22:28:18.742Z,30.30
2023-01-17T22:30:42.696Z,28.98
2023-01-17T22:39:36.142Z,30.23
2023-01-17T22:45:02.020Z,30.08
2023-01-17T22:47:38.074Z,29.45
2023-01-17T22:50:35.311Z,31.10
2023-01-17T22:56:18.392Z,30.88
2023-01-17T22:58:29.667Z,30.90
2023-01-17T23:03:54.630Z,32.22
2023-01-17T23:09:14.984Z,33.25
2023-01-17T23:14:58.697Z,34.45
2023-01-17T23:20:16.744Z,36.20
2023-01-17T23:26:10.019Z,38.00
2023-01-17T23:31:34.041Z,39.77
2023-01-17T23:37:17.501Z,38.87
2023-01-17T23:39:35.493Z,36.40
2023-01-17T23:48:25.875Z,32.13
2023-01-17T23:50:56.921Z,34.13
2023-01-17T23:56:24.827Z,31.98
